Have a Safe July 4th! 

Flight Track Log - Related Links

Times and Time Zones

All times are in EDT time to prevent confusion due to time zone crossing. See the AFL150 flight status page for this flight to view local times or setup timezone preferences in your user account.

Time Position Orientation Groundspeed Altitude Reporting Facility
EDT Latitude Longitude Course Direction KTS MPH feet Rate Location/Type
Sat 06:23:00 AM 56.1796 37.0279 306° West  Level FlightAware Approximate
Sat 06:24:00 AM 56.2505 36.8519 306° West  Level FlightAware Approximate
Sat 06:25:00 AM 56.3212 36.6754 306° West  Level FlightAware Approximate
Sat 06:26:00 AM 56.3916 36.4981 306° West  Level FlightAware Approximate
Sat 06:27:00 AM 56.4617 36.3202 306° West  Level FlightAware Approximate
Sat 06:28:00 AM 56.5316 36.1417 305° West  Level FlightAware Approximate
Sat 06:29:00 AM 56.6013 35.9625 305° West  Level FlightAware Approximate
Sat 06:30:00 AM 56.6706 35.7826 305° West  Level FlightAware Approximate
Sat 06:31:00 AM 56.7398 35.6021 305° West  Level FlightAware Approximate
Sat 06:32:00 AM 56.8086 35.4209 305° West  Level FlightAware Approximate
Sat 06:33:00 AM 56.8772 35.2390 305° West  Level FlightAware Approximate
Sat 06:34:00 AM 56.9455 35.0565 305° West  Level FlightAware Approximate
Sat 06:35:00 AM 57.0136 34.8733 304° West  Level FlightAware Approximate
Sat 06:36:00 AM 57.0814 34.6894 304° West  Level FlightAware Approximate
Sat 06:37:00 AM 57.1489 34.5049 304° West  Level FlightAware Approximate
Sat 06:38:00 AM 57.2162 34.3197 304° West  Level FlightAware Approximate
Sat 06:39:00 AM 57.2832 34.1338 304° West  Level FlightAware Approximate
Sat 06:40:00 AM 57.3499 33.9472 304° West  Level FlightAware Approximate
Sat 06:41:00 AM 57.3786 33.8658 303° West  Level FlightAware Approximate
Sat 06:42:00 AM 57.4443 33.6774 303° West  Level FlightAware Approximate
Sat 06:43:00 AM 57.5096 33.4883 303° West  Level FlightAware Approximate
Sat 06:44:00 AM 57.5746 33.2986 303° West  Level FlightAware Approximate
Sat 06:45:00 AM 57.6394 33.1082 302° West  Level FlightAware Approximate
Sat 06:46:00 AM 57.7039 32.9171 302° West  Level FlightAware Approximate
Sat 06:47:00 AM 57.7681 32.7254 302° West  Level FlightAware Approximate
Sat 06:48:00 AM 57.8320 32.5329 302° West  Level FlightAware Approximate
Sat 06:49:00 AM 57.8956 32.3398 302° West  Level FlightAware Approximate
Sat 06:50:00 AM 57.9589 32.1460 302° West  Level FlightAware Approximate
Sat 06:51:00 AM 58.0219 31.9515 302° West  Level FlightAware Approximate
Sat 06:52:00 AM 58.0846 31.7563 301° West  Level FlightAware Approximate
Sat 06:53:00 AM 58.1470 31.5605 301° West  Level FlightAware Approximate
Sat 06:54:00 AM 58.2091 31.3639 301° West  Level FlightAware Approximate
Sat 06:55:00 AM 58.2709 31.1667 301° West  Level FlightAware Approximate
Sat 06:56:00 AM 58.3325 30.9687 301° West  Level FlightAware Approximate
Sat 06:57:00 AM 58.3937 30.7701 301° West  Level FlightAware Approximate
Sat 06:58:00 AM 58.4545 30.5708 300° West  Level FlightAware Approximate
Sat 06:59:00 AM 58.5151 30.3708 300° West  Level FlightAware Approximate
Sat 07:00:00 AM 58.5754 30.1702 300° West  Level FlightAware Approximate
Sat 07:01:00 AM 58.6353 29.9688 300° West  Level FlightAware Approximate
Sat 07:02:00 AM 58.6950 29.7667 300° West  Level FlightAware Approximate
Sat 07:03:00 AM 58.7543 29.5640 299° West  Level FlightAware Approximate
Sat 07:04:00 AM 58.8133 29.3605 299° West  Level FlightAware Approximate
Sat 07:05:00 AM 58.8720 29.1564 299° West  Level FlightAware Approximate
Sat 07:06:00 AM 58.9304 28.9515 299° West  Level FlightAware Approximate
Sat 07:07:00 AM 58.9884 28.7460 299° West  Level FlightAware Approximate
Sat 07:08:00 AM 59.0461 28.5398 299° West  Level FlightAware Approximate
Sat 07:09:00 AM 59.1035 28.3329 298° West  Level FlightAware Approximate
Sat 07:10:00 AM 59.1605 28.1253 298° West  Level FlightAware Approximate
Sat 07:11:00 AM 59.2173 27.9170 298° West  Level FlightAware Approximate
Sat 07:12:00 AM 59.2736 27.7080 298° West  Level FlightAware Approximate
Sat 07:13:00 AM 59.3297 27.4984 298° West  Level FlightAware Approximate
Sat 07:14:00 AM 59.3854 27.2880 298° West  Level FlightAware Approximate
Sat 07:15:00 AM 59.4408 27.0770 297° West  Level FlightAware Approximate
Sat 07:16:00 AM 59.4958 26.8652 297° West  Level FlightAware Approximate
Sat 07:17:00 AM 59.5505 26.6528 297° West  Level FlightAware Approximate
Sat 07:18:00 AM 59.6048 26.4397 297° West  Level FlightAware Approximate
Sat 07:19:00 AM 59.6588 26.2259 297° West  Level FlightAware Approximate
Sat 07:20:00 AM 59.7125 26.0114 296° West  Level FlightAware Approximate
Sat 07:21:00 AM 59.7658 25.7962 296° West  Level FlightAware Approximate
Sat 07:22:00 AM 59.8187 25.5803 296° West  Level FlightAware Approximate
Sat 07:23:00 AM 59.8713 25.3638 296° West  Level FlightAware Approximate
Sat 07:24:00 AM 59.9235 25.1465 296° West  Level FlightAware Approximate
Sat 07:25:00 AM 59.9754 24.9286 296° West  Level FlightAware Approximate
Sat 07:26:00 AM 60.0269 24.7100 295° West  Level FlightAware Approximate
Sat 07:27:00 AM 60.0780 24.4907 295° West  Level FlightAware Approximate
Sat 07:27:59 AM 59.9306 26.4660 284° West 438 504 34,000  Level FlightAware ADS-B
Sat 07:28:00 AM 60.1288 24.2708 295° West  Level FlightAware Approximate
Sat 07:29:19 AM 59.9954 26.1507 300° West 439 505 34,000  Level FlightAware ADS-B
Sat 07:29:58 AM 60.0401 26.0239 309° West 439 505 34,000  Level FlightAware ADS-B
Sat 07:30:28 AM 60.0826 25.9318 316° Northwest 441 507 34,000  Level FlightAware ADS-B
Sat 07:31:18 AM 60.1607 25.8032 323° Northwest 442 509 34,000  Level FlightAware ADS-B
Sat 07:31:48 AM 60.2066 25.7202 314° West 440 506 34,000  Level FlightAware ADS-B
Sat 07:32:18 AM 60.2452 25.6281 307° West 438 504 34,000  Level FlightAware ADS-B
Sat 07:32:50 AM 60.2807 25.5221 301° West 436 502 34,000  Level FlightAware ADS-B
Sat 07:33:29 AM 60.3160 25.3796 293° West 434 499 34,000  Level FlightAware ADS-B
Sat 07:34:00 AM 60.3347 25.2708 286° West 434 499 34,000  Level FlightAware ADS-B
Sat 07:34:30 AM 60.3507 25.1451 284° West 432 497 34,000  Level FlightAware ADS-B
Sat 07:35:09 AM 60.3695 24.9931 284° West 432 497 34,000  Level FlightAware ADS-B
Sat 07:35:39 AM 60.3842 24.8730 284° West 432 497 34,000  Level FlightAware ADS-B
Sat 07:36:10 AM 60.3980 24.7596 284° West 433 498 34,000  Level FlightAware ADS-B
Sat 07:36:40 AM 60.4128 24.6366 284° West 433 498 34,000  Level FlightAware ADS-B
Sat 07:37:19 AM 60.4306 24.4879 284° West 432 497 34,000  Level FlightAware ADS-B
Sat 07:38:00 AM 60.4507 24.3236 286° West 432 497 34,000  Level FlightAware ADS-B
Sat 07:38:37 AM 60.4715 24.2050 293° West 433 498 34,000  Level FlightAware ADS-B
Sat 07:39:10 AM 60.5051 24.0683 299° West 434 499 34,000  Level FlightAware ADS-B
Sat 07:39:49 AM 60.5420 23.9315 299° West 435 501 34,000  Level FlightAware ADS-B
Sat 07:40:30 AM 60.5823 23.7797 298° West 436 502 34,000 85 Level FlightAware ADS-B
Sat 07:41:00 AM 60.6110 23.6704 298° West 437 503 34,100 500 Climbing FlightAware ADS-B
Sat 07:41:30 AM 60.6382 23.5660 298° West 438 504 34,500 1,043 Climbing FlightAware ADS-B
Sat 07:42:09 AM 60.6736 23.4295 298° West 432 497 35,300 1,029 Climbing FlightAware ADS-B
Sat 07:42:40 AM 60.7043 23.3102 298° West 432 497 35,700 393 Climbing FlightAware ADS-B
Sat 07:43:10 AM 60.7313 23.2040 298° West 440 506 35,700 176 Level FlightAware ADS-B
Sat 07:43:48 AM 60.7605 23.0896 298° West 446 513 35,900 265 Climbing FlightAware ADS-B
Sat 07:44:18 AM 60.7947 22.9552 297° West 446 513 36,000 72 Climbing FlightAware ADS-B
Sat 07:45:11 AM 60.8465 22.7490 297° West 444 511 36,000  Level FlightAware ADS-B
Sat 07:45:51 AM 60.8834 22.6005 297° West 445 512 36,000  Level FlightAware ADS-B
Sat 07:46:21 AM 60.9062 22.5086 296° West 441 507 36,000  Level FlightAware ADS-B
Sat 07:47:00 AM 60.9452 22.3506 298° West 443 510 36,000  Level FlightAware ADS-B
Sat 07:47:31 AM 60.9786 22.2332 302° West 442 509 36,000  Level FlightAware ADS-B
Sat 07:48:20 AM 61.0347 22.0547 303° West 443 510 36,000  Level FlightAware ADS-B
Sat 07:49:01 AM 61.0788 21.9111 302° West 443 510 36,000  Level FlightAware ADS-B
Sat 07:49:39 AM 61.1205 21.7729 302° West 444 511 36,000  Level FlightAware ADS-B
Sat 07:50:09 AM 61.1447 21.6924 302° West 444 511 36,000  Level FlightAware ADS-B
Sat 07:50:40 AM 61.1863 21.5537 302° West 443 510 36,000  Level FlightAware ADS-B
Sat 07:51:10 AM 61.2184 21.4461 302° West 443 510 36,000  Level FlightAware ADS-B
Sat 07:51:50 AM 61.2605 21.3044 302° West 444 511 36,000  Level FlightAware ADS-B
Sat 07:52:51 AM 61.1863 21.5537 301° West 443 510 36,000  Level FlightAware ADS-B
Sat 07:54:11 AM 61.2605 21.3044 302° West 444 511 36,000  Level FlightAware ADS-B
Sat 07:56:00 AM 61.3455 20.8830 293° West  Level Estimated
Sat 07:57:00 AM 61.3917 20.6500 293° West  Level Estimated
Sat 07:58:00 AM 61.4376 20.4164 292° West  Level Estimated
Sat 07:59:00 AM 61.4830 20.1821 292° West  Level Estimated
Sat 08:00:00 AM 61.5280 19.9470 292° West  Level Estimated
Sat 08:01:00 AM 61.5727 19.7113 292° West  Level Estimated
Sat 08:02:00 AM 61.6169 19.4750 292° West  Level Estimated
Sat 08:03:00 AM 61.6607 19.2379 291° West  Level Estimated
Sat 08:04:00 AM 61.7041 19.0002 291° West  Level Estimated
Sat 08:05:00 AM 61.7471 18.7619 291° West  Level Estimated
Sat 08:06:00 AM 61.7897 18.5228 291° West  Level Estimated
Sat 08:07:00 AM 61.8319 18.2831 291° West  Level Estimated
Sat 08:08:00 AM 61.8736 18.0427 290° West  Level Estimated
Sat 08:09:00 AM 61.9149 17.8017 290° West  Level Estimated
Sat 08:10:00 AM 61.9558 17.5601 290° West  Level Estimated
Sat 08:11:00 AM 61.9963 17.3178 290° West  Level Estimated
Sat 08:12:00 AM 62.0364 17.0748 289° West  Level Estimated
Sat 08:13:00 AM 62.0760 16.8312 289° West  Level Estimated
Sat 08:14:00 AM 62.1152 16.5870 289° West  Level Estimated
Sat 08:15:00 AM 62.1539 16.3422 289° West  Level Estimated
Sat 08:16:00 AM 62.1923 16.0967 289° West  Level Estimated
Sat 08:17:00 AM 62.2302 15.8506 288° West  Level Estimated
Sat 08:18:00 AM 62.2676 15.6039 288° West  Level Estimated
Sat 08:19:00 AM 62.3046 15.3566 288° West  Level Estimated
Sat 08:20:00 AM 62.3412 15.1087 288° West  Level Estimated
Sat 08:21:00 AM 62.3774 14.8602 288° West  Level Estimated
Sat 08:22:00 AM 62.4131 14.6110 287° West  Level Estimated
Sat 08:23:00 AM 62.4483 14.3613 287° West  Level Estimated
Sat 08:24:00 AM 62.4831 14.1110 287° West  Level Estimated
Sat 08:25:00 AM 62.5175 13.8602 287° West  Level Estimated
Sat 08:26:00 AM 62.5514 13.6087 286° West  Level Estimated
Sat 08:27:00 AM 62.5848 13.3567 286° West  Level Estimated
Sat 08:28:00 AM 62.6178 13.1041 286° West  Level Estimated
Sat 08:29:00 AM 62.6503 12.8510 286° West  Level Estimated
Sat 08:30:00 AM 62.6824 12.5973 286° West  Level Estimated
Sat 08:31:00 AM 62.7140 12.3430 285° West  Level Estimated
Sat 08:32:00 AM 62.7452 12.0882 285° West  Level Estimated
Sat 08:33:00 AM 62.7759 11.8329 285° West  Level Estimated
Sat 08:34:00 AM 62.8061 11.5771 285° West  Level Estimated
Sat 08:35:00 AM 62.8359 11.3207 284° West  Level Estimated
Sat 08:36:00 AM 62.8652 11.0638 284° West  Level Estimated
Sat 08:37:00 AM 62.8940 10.8064 284° West  Level Estimated
Sat 08:38:00 AM 62.9224 10.5485 284° West  Level Estimated
Sat 08:39:00 AM 62.9503 10.2901 283° West  Level Estimated
Sat 08:40:00 AM 62.9777 10.0312 283° West  Level Estimated
Sat 08:41:00 AM 63.0047 9.7719 283° West  Level Estimated
Sat 08:42:00 AM 63.0311 9.5121 283° West  Level Estimated
Sat 08:43:00 AM 63.0571 9.2517 283° West  Level Estimated
Sat 08:44:00 AM 63.0826 8.9910 282° West  Level Estimated
Sat 08:45:00 AM 63.1077 8.7298 282° West  Level Estimated
Sat 08:46:00 AM 63.1322 8.4681 282° West  Level Estimated
Sat 08:47:00 AM 63.1563 8.2060 282° West  Level Estimated
Sat 08:48:00 AM 63.1799 7.9435 281° West  Level Estimated
Sat 08:49:00 AM 63.2030 7.6805 281° West  Level Estimated
Sat 08:50:00 AM 63.2256 7.4171 281° West  Level Estimated
Sat 08:51:00 AM 63.2477 7.1533 281° West  Level Estimated
Sat 08:52:00 AM 63.2694 6.8892 280° West  Level Estimated
Sat 08:53:00 AM 63.2905 6.6246 280° West  Level Estimated
Sat 08:54:00 AM 63.3112 6.3596 280° West  Level Estimated
Sat 08:55:00 AM 63.3313 6.0943 280° West  Level Estimated
Sat 08:56:00 AM 63.3510 5.8286 279° West  Level Estimated
Sat 08:57:00 AM 63.3702 5.5625 279° West  Level Estimated
Sat 08:58:00 AM 63.3889 5.2961 279° West  Level Estimated
Sat 08:59:00 AM 63.4070 5.0294 279° West  Level Estimated
Sat 09:00:00 AM 63.4247 4.7623 279° West  Level Estimated
Sat 09:01:00 AM 63.4419 4.4949 278° West  Level Estimated
Sat 09:02:00 AM 63.4586 4.2271 278° West  Level Estimated
Sat 09:03:00 AM 63.4748 3.9591 278° West  Level Estimated
Sat 09:04:00 AM 63.4905 3.6908 278° West  Level Estimated
Sat 09:05:00 AM 63.5057 3.4221 277° West  Level Estimated
Sat 09:06:00 AM 63.5203 3.1532 277° West  Level Estimated
Sat 09:07:00 AM 63.5345 2.8840 277° West  Level Estimated
Sat 09:08:00 AM 63.5482 2.6146 277° West  Level Estimated
Sat 09:09:00 AM 63.5614 2.3449 276° West  Level Estimated
Sat 09:10:00 AM 63.5740 2.0750 276° West  Level Estimated
Sat 09:11:00 AM 63.5862 1.8048 276° West  Level Estimated
Sat 09:12:00 AM 63.5978 1.5344 276° West  Level Estimated
Sat 09:13:00 AM 63.6089 1.2638 275° West  Level Estimated
Sat 09:14:00 AM 63.6196 0.9929 275° West  Level Estimated
Sat 09:15:00 AM 63.6297 0.7219 275° West  Level Estimated
Sat 09:16:00 AM 63.6393 0.4507 275° West  Level Estimated
Sat 09:17:00 AM 63.6484 0.1793 274° West  Level Estimated
Sat 09:18:00 AM 63.6570 -0.0922 274° West  Level Estimated
Sat 09:19:00 AM 63.6650 -0.3640 274° West  Level Estimated
Sat 09:20:00 AM 63.6726 -0.6358 274° West  Level Estimated
Sat 09:21:00 AM 63.6796 -0.9078 273° West  Level Estimated
Sat 09:22:00 AM 63.6861 -1.1800 273° West  Level Estimated
Sat 09:23:00 AM 63.6922 -1.4522 273° West  Level Estimated
Sat 09:24:00 AM 63.6977 -1.7246 273° West  Level Estimated
Sat 09:25:00 AM 63.7027 -1.9971 272° West  Level Estimated
Sat 09:26:00 AM 63.7071 -2.2696 272° West  Level Estimated
Sat 09:27:00 AM 63.7111 -2.5423 272° West  Level Estimated
Sat 09:28:00 AM 63.7145 -2.8150 272° West  Level Estimated
Sat 09:29:00 AM 63.7175 -3.0878 272° West  Level Estimated
Sat 09:30:00 AM 63.7199 -3.3606 271° West  Level Estimated
Sat 09:31:00 AM 63.7218 -3.6335 271° West  Level Estimated
Sat 09:32:00 AM 63.7231 -3.9064 271° West  Level Estimated
Sat 09:33:00 AM 63.7240 -4.1793 271° West  Level Estimated
Sat 09:34:00 AM 63.7243 -4.4522 270° West  Level Estimated
Sat 09:35:00 AM 63.7242 -4.7252 270° West  Level Estimated
Sat 09:36:00 AM 63.7235 -4.9981 270° West  Level Estimated
Sat 09:37:00 AM 63.7223 -5.2710 270° West  Level Estimated
Sat 09:38:00 AM 63.7206 -5.5439 269° West  Level Estimated
Sat 09:39:00 AM 63.7183 -5.8167 269° West  Level Estimated
Sat 09:40:00 AM 63.7156 -6.0895 269° West  Level Estimated
Sat 09:41:00 AM 63.7123 -6.3623 269° West  Level Estimated
Sat 09:42:00 AM 63.7086 -6.6349 268° West  Level Estimated
Sat 09:43:00 AM 63.7043 -6.9075 268° West  Level Estimated
Sat 09:44:00 AM 63.6995 -7.1800 268° West  Level Estimated
Sat 09:45:00 AM 63.6941 -7.4524 268° West  Level Estimated
Sat 09:46:00 AM 63.6883 -7.7247 267° West  Level Estimated
Sat 09:47:00 AM 63.6819 -7.9969 267° West  Level Estimated
Sat 09:48:00 AM 63.6751 -8.2690 267° West  Level Estimated
Sat 09:49:00 AM 63.6677 -8.5409 267° West  Level Estimated
Sat 09:50:00 AM 63.6598 -8.8126 266° West  Level Estimated
Sat 09:51:00 AM 63.6514 -9.0843 266° West  Level Estimated
Sat 09:52:00 AM 63.6425 -9.3557 266° West  Level Estimated
Sat 09:53:00 AM 63.6330 -9.6270 266° West  Level Estimated
Sat 09:54:00 AM 63.6231 -9.8981 265° West  Level Estimated
Sat 09:55:00 AM 63.6127 -10.1690 265° West  Level Estimated
Sat 09:56:00 AM 63.6017 -10.4397 265° West  Level Estimated
Sat 09:57:00 AM 63.5902 -10.7101 265° West  Level Estimated
Sat 09:58:00 AM 63.5783 -10.9804 264° West  Level Estimated
Sat 09:59:00 AM 63.5658 -11.2504 264° West  Level Estimated
Sat 10:00:00 AM 63.5528 -11.5202 264° West  Level Estimated
Sat 10:01:00 AM 63.5393 -11.7897 264° West  Level Estimated
Sat 10:02:00 AM 63.5253 -12.0590 263° West  Level Estimated
Sat 10:03:00 AM 63.5108 -12.3280 263° West  Level Estimated
Sat 10:04:00 AM 63.4958 -12.5967 263° West  Level Estimated
Sat 10:05:00 AM 63.4803 -12.8652 263° West  Level Estimated
Sat 10:06:00 AM 63.4643 -13.1333 263° West  Level Estimated
Sat 10:07:00 AM 63.4477 -13.4012 262° West  Level Estimated
Sat 10:08:00 AM 63.4307 -13.6687 262° West  Level Estimated
Sat 10:09:00 AM 63.4132 -13.9359 262° West  Level Estimated
Sat 10:10:00 AM 63.3952 -14.2028 262° West  Level Estimated
Sat 10:11:00 AM 63.3767 -14.4693 261° West  Level Estimated
Sat 10:12:00 AM 63.3577 -14.7355 261° West  Level Estimated
Sat 10:13:00 AM 63.3382 -15.0013 261° West  Level Estimated
Sat 10:14:00 AM 63.3182 -15.2668 261° West  Level Estimated
Sat 10:15:00 AM 63.2977 -15.5318 260° West  Level Estimated
Sat 10:16:00 AM 63.2767 -15.7966 260° West  Level Estimated
Sat 10:17:00 AM 63.2553 -16.0609 260° West  Level Estimated
Sat 10:18:00 AM 63.2333 -16.3248 260° West  Level Estimated
Sat 10:19:00 AM 63.2109 -16.5883 259° West  Level Estimated
Sat 10:20:00 AM 63.1879 -16.8514 259° West  Level Estimated
Sat 10:21:00 AM 63.1645 -17.1141 259° West  Level Estimated
Sat 10:22:00 AM 63.1406 -17.3764 259° West  Level Estimated
Sat 10:23:00 AM 63.1162 -17.6382 258° West  Level Estimated
Sat 10:24:00 AM 63.0914 -17.8995 258° West  Level Estimated
Sat 10:25:00 AM 63.0660 -18.1605 258° West  Level Estimated
Sat 10:26:00 AM 63.0402 -18.4209 258° West  Level Estimated
Sat 10:27:00 AM 63.0139 -18.6809 258° West  Level Estimated
Sat 10:28:00 AM 62.9871 -18.9405 257° West  Level Estimated
Sat 10:29:00 AM 62.9598 -19.1995 257° West  Level Estimated
Sat 10:30:00 AM 62.9321 -19.4581 257° West  Level Estimated
Sat 10:31:00 AM 62.9039 -19.7161 257° West  Level Estimated
Sat 10:32:00 AM 62.8752 -19.9737 256° West  Level Estimated
Sat 10:33:00 AM 62.8461 -20.2308 256° West  Level Estimated
Sat 10:34:00 AM 62.8165 -20.4873 256° West  Level Estimated
Sat 10:35:00 AM 62.7864 -20.7433 256° West  Level Estimated
Sat 10:36:00 AM 62.7559 -20.9988 255° West  Level Estimated
Sat 10:37:00 AM 62.7249 -21.2538 255° West  Level Estimated
Sat 10:38:00 AM 62.6934 -21.5082 255° West  Level Estimated
Sat 10:39:00 AM 62.6615 -21.7621 255° West  Level Estimated
Sat 10:40:00 AM 62.6291 -22.0155 255° West  Level Estimated
Sat 10:41:00 AM 62.5963 -22.2682 254° West  Level Estimated
Sat 10:42:00 AM 62.5630 -22.5205 254° West  Level Estimated
Sat 10:43:00 AM 62.5292 -22.7721 254° West  Level Estimated
Sat 10:44:00 AM 62.4950 -23.0232 254° West  Level Estimated
Sat 10:45:00 AM 62.4604 -23.2737 253° West  Level Estimated
Sat 10:46:00 AM 62.4253 -23.5236 253° West  Level Estimated
Sat 10:47:00 AM 62.3898 -23.7729 253° West  Level Estimated
Sat 10:47:00 AM 63.0000 -20.0000 262° West 459 528 36,000  Level ETMS Enhanced Traffic Management System
Sat 10:48:00 AM 62.3538 -24.0217 253° West  Level Estimated
Sat 10:49:00 AM 62.3173 -24.2698 253° West  Level Estimated
Sat 10:50:00 AM 62.2805 -24.5173 252° West  Level Estimated
Sat 10:51:00 AM 62.2432 -24.7642 252° West  Level Estimated
Sat 10:52:00 AM 62.2054 -25.0105 252° West  Level Estimated
Sat 10:53:00 AM 62.3714 -27.1000 256° West 459 528 36,000  Level FlightAware Transoceanic
Sat 10:54:00 AM 62.3401 -27.3666 256° West 459 528 36,000  Level FlightAware Transoceanic
Sat 10:55:00 AM 62.3084 -27.6325 255° West 459 528 36,000  Level FlightAware Transoceanic
Sat 10:56:00 AM 62.2761 -27.8979 255° West 459 528 36,000  Level FlightAware Transoceanic
Sat 10:57:00 AM 62.2434 -28.1628 255° West 459 528 36,000  Level FlightAware Transoceanic
Sat 10:58:00 AM 62.2101 -28.4270 255° West 459 528 36,000  Level FlightAware Transoceanic
Sat 10:59:00 AM 62.1763 -28.6907 255° West 459 528 36,000  Level FlightAware Transoceanic
Sat 11:00:00 AM 62.1421 -28.9538 254° West 459 528 36,000  Level FlightAware Transoceanic
Sat 11:01:00 AM 62.1073 -29.2162 254° West 459 528 36,000  Level FlightAware Transoceanic
Sat 11:02:00 AM 62.0720 -29.4781 254° West 459 528 36,000  Level FlightAware Transoceanic
Sat 11:03:00 AM 62.0363 -29.7394 254° West 459 528 36,000 Level FlightAware Transoceanic
Sat 11:04:00 AM 61.9889 -29.9763 247° West  Level Estimated
Sat 11:05:00 AM 61.9412 -30.2125 247° West  Level Estimated
Sat 11:06:00 AM 61.8931 -30.4479 247° West  Level Estimated
Sat 11:07:00 AM 61.8446 -30.6826 246° West  Level Estimated
Sat 11:08:00 AM 61.7957 -30.9165 246° West  Level Estimated
Sat 11:09:00 AM 61.7463 -31.1497 246° West  Level Estimated
Sat 11:10:00 AM 61.6966 -31.3822 246° West  Level Estimated
Sat 11:11:00 AM 61.6465 -31.6139 246° West  Level Estimated
Sat 11:12:00 AM 61.5960 -31.8448 245° Southwest  Level Estimated
Sat 11:13:00 AM 61.5452 -32.0750 245° Southwest  Level Estimated
Sat 11:14:00 AM 61.4939 -32.3045 245° Southwest  Level Estimated
Sat 11:15:00 AM 61.4422 -32.5331 245° Southwest  Level Estimated
Sat 11:16:00 AM 61.3902 -32.7611 245° Southwest  Level Estimated
Sat 11:17:00 AM 61.3378 -32.9882 244° Southwest  Level Estimated
Sat 11:18:00 AM 61.2850 -33.2146 244° Southwest  Level Estimated
Sat 11:19:00 AM 61.2318 -33.4403 244° Southwest  Level Estimated
Sat 11:20:00 AM 61.1783 -33.6651 244° Southwest  Level Estimated
Sat 11:21:00 AM 61.1244 -33.8893 244° Southwest  Level Estimated
Sat 11:22:00 AM 61.0701 -34.1126 243° Southwest  Level Estimated
Sat 11:23:00 AM 61.0154 -34.3352 243° Southwest  Level Estimated
Sat 11:24:00 AM 60.9604 -34.5570 243° Southwest  Level Estimated
Sat 11:25:00 AM 60.9050 -34.7780 243° Southwest  Level Estimated
Sat 11:26:00 AM 60.8493 -34.9983 243° Southwest  Level Estimated
Sat 11:27:00 AM 60.7932 -35.2178 242° Southwest  Level Estimated
Sat 11:28:00 AM 60.7368 -35.4365 242° Southwest  Level Estimated
Sat 11:29:00 AM 60.6800 -35.6545 242° Southwest  Level Estimated
Sat 11:30:00 AM 60.6228 -35.8717 242° Southwest  Level Estimated
Sat 11:31:00 AM 60.5653 -36.0881 242° Southwest  Level Estimated
Sat 11:32:00 AM 60.5074 -36.3037 241° Southwest  Level Estimated
Sat 11:33:00 AM 60.4492 -36.5186 241° Southwest  Level Estimated
Sat 11:34:00 AM 60.3907 -36.7327 241° Southwest  Level Estimated
Sat 11:35:00 AM 60.3317 -36.9460 241° Southwest  Level Estimated
Sat 11:36:00 AM 60.2725 -37.1586 241° Southwest  Level Estimated
Sat 11:37:00 AM 60.2130 -37.3704 241° Southwest  Level Estimated
Sat 11:38:00 AM 60.1530 -37.5814 240° Southwest  Level Estimated
Sat 11:39:00 AM 60.0928 -37.7917 240° Southwest  Level Estimated
Sat 11:40:00 AM 60.0322 -38.0012 240° Southwest  Level Estimated
Sat 11:41:00 AM 59.9713 -38.2099 240° Southwest  Level Estimated
Sat 11:42:00 AM 59.9101 -38.4178 240° Southwest  Level Estimated
Sat 11:43:00 AM 59.8485 -38.6250 239° Southwest  Level Estimated
Sat 11:44:00 AM 59.7866 -38.8314 239° Southwest  Level Estimated
Sat 11:45:00 AM 59.7244 -39.0371 239° Southwest  Level Estimated
Sat 11:46:00 AM 59.6619 -39.2420 239° Southwest  Level Estimated
Sat 11:47:00 AM 59.5990 -39.4461 239° Southwest  Level Estimated
Sat 11:48:00 AM 59.5359 -39.6494 239° Southwest  Level Estimated
Sat 11:49:00 AM 59.4724 -39.8520 238° Southwest  Level Estimated
Sat 11:50:00 AM 59.4086 -40.0538 238° Southwest  Level Estimated
Sat 11:51:00 AM 59.3445 -40.2549 238° Southwest  Level Estimated
Sat 11:52:00 AM 59.2801 -40.4552 238° Southwest  Level Estimated
Sat 11:53:00 AM 59.2154 -40.6548 238° Southwest  Level Estimated
Sat 11:54:00 AM 59.1504 -40.8535 238° Southwest  Level Estimated
Sat 11:55:00 AM 59.0851 -41.0516 237° Southwest  Level Estimated
Sat 11:56:00 AM 59.0194 -41.2489 237° Southwest  Level Estimated
Sat 11:57:00 AM 58.9535 -41.4454 237° Southwest  Level Estimated
Sat 11:58:00 AM 58.8873 -41.6412 237° Southwest  Level Estimated
Sat 11:59:00 AM 58.8208 -41.8362 237° Southwest  Level Estimated
Sat 12:00:00 PM 58.7540 -42.0305 237° Southwest  Level Estimated
Sat 12:01:00 PM 58.6869 -42.2240 236° Southwest  Level Estimated
Sat 12:02:00 PM 58.6195 -42.4168 236° Southwest  Level Estimated
Sat 12:03:00 PM 58.5518 -42.6088 236° Southwest  Level Estimated
Sat 12:04:00 PM 58.4839 -42.8002 236° Southwest  Level Estimated
Sat 12:05:00 PM 58.4156 -42.9907 236° Southwest  Level Estimated
Sat 12:06:00 PM 58.3471 -43.1805 236° Southwest  Level Estimated
Sat 12:07:00 PM 58.2783 -43.3696 235° Southwest  Level Estimated
Sat 12:08:00 PM 58.2092 -43.5580 235° Southwest  Level Estimated
Sat 12:09:00 PM 58.1399 -43.7456 235° Southwest  Level Estimated
Sat 12:10:00 PM 58.0702 -43.9325 235° Southwest  Level Estimated
Sat 12:11:00 PM 58.0003 -44.1186 235° Southwest  Level Estimated
Sat 12:12:00 PM 57.9302 -44.3041 235° Southwest  Level Estimated
Sat 12:13:00 PM 57.8597 -44.4888 234° Southwest  Level Estimated
Sat 12:14:00 PM 57.7890 -44.6728 234° Southwest  Level Estimated
Sat 12:15:00 PM 57.7180 -44.8560 234° Southwest  Level Estimated
Sat 12:16:00 PM 57.6468 -45.0386 234° Southwest  Level Estimated
Sat 12:17:00 PM 57.5753 -45.2204 234° Southwest  Level Estimated
Sat 12:18:00 PM 57.5035 -45.4015 234° Southwest  Level Estimated
Sat 12:19:00 PM 57.4315 -45.5819 233° Southwest  Level Estimated
Sat 12:20:00 PM 57.3592 -45.7616 233° Southwest  Level Estimated
Sat 12:21:00 PM 57.2867 -45.9406 233° Southwest  Level Estimated
Sat 12:22:00 PM 57.2139 -46.1189 233° Southwest  Level Estimated
Sat 12:23:00 PM 57.1409 -46.2965 233° Southwest  Level Estimated
Sat 12:24:00 PM 57.0676 -46.4733 233° Southwest  Level Estimated
Sat 12:25:00 PM 56.9941 -46.6495 233° Southwest  Level Estimated
Sat 12:26:00 PM 56.9203 -46.8250 232° Southwest  Level Estimated
Sat 12:27:00 PM 56.8463 -46.9998 232° Southwest  Level Estimated
Sat 12:28:00 PM 56.7720 -47.1739 232° Southwest  Level Estimated
Sat 12:29:00 PM 56.6975 -47.3473 232° Southwest  Level Estimated
Sat 12:30:00 PM 56.6227 -47.5200 232° Southwest  Level Estimated
Sat 12:31:00 PM 56.5477 -47.6921 232° Southwest  Level Estimated
Sat 12:32:00 PM 56.4725 -47.8634 232° Southwest  Level Estimated
Sat 12:33:00 PM 56.3971 -48.0341 231° Southwest  Level Estimated
Sat 12:34:00 PM 56.3214 -48.2041 231° Southwest  Level Estimated
Sat 12:35:00 PM 56.2454 -48.3734 231° Southwest  Level Estimated
Sat 12:36:00 PM 56.1693 -48.5421 231° Southwest  Level Estimated
Sat 12:37:00 PM 56.0929 -48.7101 231° Southwest  Level Estimated
Sat 12:38:00 PM 56.0163 -48.8774 231° Southwest  Level Estimated
Sat 12:39:00 PM 55.9395 -49.0440 231° Southwest  Level Estimated
Sat 12:40:00 PM 55.8624 -49.2100 230° Southwest  Level Estimated
Sat 12:41:00 PM 55.7851 -49.3754 230° Southwest  Level Estimated
Sat 12:42:00 PM 55.7076 -49.5401 230° Southwest  Level Estimated
Sat 12:43:00 PM 55.6299 -49.7041 230° Southwest  Level Estimated
Sat 12:44:00 PM 55.5519 -49.8675 230° Southwest  Level Estimated
Sat 12:45:00 PM 55.4738 -50.0302 230° Southwest  Level Estimated
Sat 12:46:00 PM 55.3954 -50.1923 230° Southwest  Level Estimated
Sat 12:47:00 PM 55.3168 -50.3537 229° Southwest  Level Estimated
Sat 12:48:00 PM 55.2380 -50.5145 229° Southwest  Level Estimated
Sat 12:49:00 PM 55.1590 -50.6747 229° Southwest  Level Estimated
Sat 12:50:00 PM 55.0798 -50.8343 229° Southwest  Level Estimated
Sat 12:51:00 PM 55.0004 -50.9931 229° Southwest  Level Estimated
Sat 12:52:00 PM 54.9207 -51.1514 229° Southwest  Level Estimated
Sat 12:53:00 PM 54.8409 -51.3091 229° Southwest  Level Estimated
Sat 12:54:00 PM 54.7609 -51.4661 229° Southwest  Level Estimated
Sat 12:55:00 PM 54.6806 -51.6225 228° Southwest  Level Estimated
Sat 12:56:00 PM 54.6002 -51.7783 228° Southwest  Level Estimated
Sat 12:57:00 PM 54.5195 -51.9335 228° Southwest  Level Estimated
Sat 12:58:00 PM 54.4387 -52.0880 228° Southwest  Level Estimated
Sat 12:59:00 PM 54.3577 -52.2420 228° Southwest  Level Estimated
Sat 01:00:00 PM 54.2764 -52.3953 228° Southwest  Level Estimated
Sat 01:01:00 PM 54.1950 -52.5481 228° Southwest  Level Estimated
Sat 01:02:00 PM 54.1134 -52.7002 228° Southwest  Level Estimated
Sat 01:03:00 PM 54.0316 -52.8517 227° Southwest  Level Estimated
Sat 01:03:12 PM 53.9500 -54.7167 227° Southwest 450 518 37,000  Level Moncton Center
Sat 01:04:00 PM 53.9496 -53.0027 227° Southwest  Level Estimated
Sat 01:04:12 PM 53.8667 -54.9167 235° Southwest 450 518 37,000  Level Moncton Center
Sat 01:05:00 PM 53.8674 -53.1530 227° Southwest  Level Estimated
Sat 01:05:12 PM 53.8000 -55.0667 233° Southwest 450 518 37,000  Level Moncton Center
Sat 01:06:00 PM 53.7850 -53.3028 227° Southwest  Level Estimated
Sat 01:06:12 PM 53.7333 -55.2500 238° Southwest 440 506 37,000  Level Moncton Center
Sat 01:07:00 PM 53.7026 -53.4517 227° Southwest  Level Estimated
Sat 01:07:12 PM 53.6667 -55.4333 239° Southwest 440 506 37,000  Level Moncton Center
Sat 01:08:00 PM 53.6200 -53.6000 227° Southwest  Level Estimated
Sat 01:08:07 PM 53.6000 -55.5667 230° Southwest 450 518 37,000  Level Gander Center
Sat 01:08:38 PM 53.5333 -55.6333 211° Southwest 450 518 37,000  Level Gander Center
Sat 01:09:12 PM 53.4833 -55.7000 218° Southwest 440 506 37,000  Level Moncton Center
Sat 01:10:12 PM 53.4167 -55.8667 236° Southwest 450 518 37,000  Level Moncton Center
Sat 01:11:07 PM 53.3167 -55.9833 215° Southwest 450 518 37,000  Level Gander Center
Sat 01:12:07 PM 53.2167 -56.1333 222° Southwest 450 518 37,000  Level Gander Center
Sat 01:12:38 PM 53.1833 -56.2000 230° Southwest 450 518 37,000  Level Gander Center
Sat 01:13:12 PM 53.1333 -56.2833 225° Southwest 450 518 37,000  Level Moncton Center
Sat 01:14:12 PM 53.0333 -56.4333 222° Southwest 450 518 37,000  Level Moncton Center
Sat 01:16:07 PM 52.8500 -56.7167 223° Southwest 440 506 37,000  Level Gander Center
Sat 01:16:38 PM 52.8333 -56.7667 241° Southwest 440 506 37,000  Level Gander Center
Sat 01:17:12 PM 52.7667 -56.8500 217° Southwest 440 506 37,000  Level Moncton Center
Sat 01:18:12 PM 52.6833 -56.9667 220° Southwest 440 506 37,000  Level Moncton Center
Sat 01:19:12 PM 52.5833 -57.1167 222° Southwest 440 506 37,000  Level Moncton Center
Sat 01:20:38 PM 52.4667 -57.3000 224° Southwest 430 495 37,000  Level Gander Center
Sat 01:21:12 PM 52.4000 -57.3667 211° Southwest 430 495 37,000  Level Moncton Center
Sat 01:22:12 PM 52.3167 -57.5167 228° Southwest 430 495 37,000  Level Moncton Center
Sat 01:23:38 PM 52.1833 -57.7000 220° Southwest 430 495 37,000  Level Gander Center
Sat 01:24:38 PM 52.1000 -57.8500 228° Southwest 430 495 37,000  Level Gander Center
Sat 01:25:38 PM 52.0167 -57.9667 221° Southwest 430 495 37,000  Level Gander Center
Sat 01:26:38 PM 51.9167 -58.1167 223° Southwest 430 495 37,000  Level Gander Center
Sat 01:27:38 PM 51.8333 -58.2167 217° Southwest 430 495 37,000  Level Gander Center
Sat 01:28:38 PM 51.7333 -58.3667 223° Southwest 440 506 37,000  Level Gander Center
Sat 01:29:38 PM 51.6333 -58.5000 220° Southwest 430 495 37,000  Level Gander Center
Sat 01:30:12 PM 51.6000 -58.5833 237° Southwest 430 495 37,000  Level Moncton Center
Sat 01:31:12 PM 51.5167 -58.7000 221° Southwest 430 495 37,000  Level Moncton Center
Sat 01:32:07 PM 51.4167 -58.8167 216° Southwest 430 495 37,000  Level Gander Center
Sat 01:32:38 PM 51.3833 -58.8667 223° Southwest 430 495 37,000  Level Gander Center
Sat 01:33:38 PM 51.2833 -59.0167 223° Southwest 430 495 37,000  Level Gander Center
Sat 01:34:38 PM 51.2000 -59.1167 217° Southwest 430 495 37,000  Level Gander Center
Sat 01:35:12 PM 51.1500 -59.2000 226° Southwest 420 483 37,000  Level Moncton Center
Sat 01:36:12 PM 51.0500 -59.3167 216° Southwest 430 495 37,000  Level Moncton Center
Sat 01:37:07 PM 50.9667 -59.4167 217° Southwest 430 495 37,000  Level Gander Center
Sat 01:37:38 PM 50.9167 -59.4833 220° Southwest 420 483 37,000  Level Gander Center
Sat 01:38:38 PM 50.8500 -59.6167 232° Southwest 430 495 37,000  Level Gander Center
Sat 01:39:38 PM 50.7500 -59.7500 220° Southwest 430 495 37,000  Level Gander Center
Sat 01:40:38 PM 50.6667 -59.8500 217° Southwest 430 495 37,000  Level Gander Center
Sat 01:41:12 PM 50.6167 -59.9167 220° Southwest 430 495 37,000  Level Moncton Center
Sat 01:42:12 PM 50.5167 -60.0500 220° Southwest 430 495 37,000  Level Moncton Center
Sat 01:43:12 PM 50.4167 -60.1667 217° Southwest 430 495 37,000  Level Moncton Center
Sat 01:44:12 PM 50.3333 -60.2833 222° Southwest 430 495 37,000  Level Moncton Center
Sat 01:45:12 PM 50.2500 -60.4167 226° Southwest 420 483 37,000  Level Moncton Center
Sat 01:46:12 PM 50.1500 -60.5333 217° Southwest 430 495 37,000  Level Moncton Center
Sat 01:47:12 PM 50.0500 -60.6500 217° Southwest 430 495 37,000  Level Moncton Center
Sat 01:48:12 PM 49.9667 -60.7500 218° Southwest 430 495 37,000  Level Moncton Center
Sat 01:49:12 PM 49.8667 -60.8833 221° Southwest 420 483 37,000  Level Moncton Center
Sat 01:50:12 PM 49.8000 -61.0000 229° Southwest 430 495 37,000  Level Moncton Center
Sat 01:51:12 PM 49.7000 -61.1167 217° Southwest 420 483 37,000  Level Moncton Center
Sat 01:52:12 PM 49.6000 -61.2167 213° Southwest 420 483 37,000  Level Moncton Center
Sat 01:53:12 PM 49.5167 -61.3333 222° Southwest 420 483 37,000  Level Moncton Center
Sat 01:54:12 PM 49.4167 -61.4667 221° Southwest 420 483 37,000  Level Moncton Center
Sat 01:55:12 PM 49.3333 -61.5667 218° Southwest 420 483 37,000  Level Moncton Center
Sat 01:56:12 PM 49.2500 -61.6833 222° Southwest 410 472 37,000  Level Moncton Center
Sat 01:57:12 PM 49.1667 -61.7833 218° Southwest 420 483 37,000  Level Moncton Center
Sat 01:58:12 PM 49.0667 -61.9000 217° Southwest 420 483 37,000  Level Moncton Center
Sat 01:59:12 PM 48.9833 -62.0000 218° Southwest 410 472 37,000  Level Moncton Center
Sat 02:00:12 PM 48.8833 -62.1333 221° Southwest 410 472 37,000  Level Moncton Center
Sat 02:01:12 PM 48.8000 -62.2167 213° Southwest 410 472 37,000  Level Moncton Center
Sat 02:02:12 PM 48.7000 -62.3500 221° Southwest 410 472 37,000  Level Moncton Center
Sat 02:03:12 PM 48.6167 -62.4500 218° Southwest 410 472 37,000 -300 Level Moncton Center
Sat 02:04:12 PM 48.5167 -62.5500 214° Southwest 420 483 36,400 -500 Descending Moncton Center
Sat 02:05:12 PM 48.4167 -62.6500 214° Southwest 420 483 36,000 -200 Descending Moncton Center
Sat 02:06:12 PM 48.3333 -62.7667 223° Southwest 420 483 36,000  Level Moncton Center
Sat 02:07:12 PM 48.2500 -62.8833 223° Southwest 430 495 36,000  Level Moncton Center
Sat 02:08:12 PM 48.1667 -62.9833 219° Southwest 420 483 36,000  Level Moncton Center
Sat 02:09:12 PM 48.0667 -63.1000 218° Southwest 420 483 36,000  Level Moncton Center
Sat 02:10:12 PM 47.9667 -63.2000 214° Southwest 420 483 36,000  Level Moncton Center
Sat 02:11:12 PM 47.8667 -63.3167 218° Southwest 420 483 36,000  Level Moncton Center
Sat 02:12:12 PM 47.7833 -63.4333 223° Southwest 420 483 36,000  Level Moncton Center
Sat 02:13:12 PM 47.7000 -63.5333 219° Southwest 420 483 36,000  Level Moncton Center
Sat 02:14:12 PM 47.6000 -63.6333 214° Southwest 420 483 36,000  Level Moncton Center
Sat 02:15:12 PM 47.5000 -63.7333 214° Southwest 420 483 36,000  Level Moncton Center
Sat 02:16:12 PM 47.4167 -63.8500 223° Southwest 420 483 36,000  Level Moncton Center
Sat 02:17:12 PM 47.3167 -63.9500 214° Southwest 410 472 36,000  Level Moncton Center
Sat 02:18:12 PM 47.2333 -64.0500 219° Southwest 410 472 36,000  Level Moncton Center
Sat 02:19:12 PM 47.1333 -64.1500 214° Southwest 410 472 36,000  Level Moncton Center
Sat 02:20:12 PM 47.0500 -64.2500 219° Southwest 400 460 36,000  Level Moncton Center
Sat 02:21:12 PM 46.9667 -64.3500 219° Southwest 400 460 36,000  Level Moncton Center
Sat 02:22:12 PM 46.8667 -64.4500 214° Southwest 400 460 36,000  Level Moncton Center
Sat 02:23:12 PM 46.7833 -64.5500 219° Southwest 400 460 36,000  Level Moncton Center
Sat 02:24:12 PM 46.7000 -64.6333 214° Southwest 400 460 36,000  Level Moncton Center
Sat 02:25:12 PM 46.6000 -64.7333 215° Southwest 400 460 36,000  Level Moncton Center
Sat 02:26:12 PM 46.5167 -64.8333 220° Southwest 400 460 36,000  Level Moncton Center
Sat 02:30:56 PM 46.2528 -65.1284 216° Southwest 399 459 36,000  Level FlightAware ADS-B (EGUN / MHZ)
Sat 02:32:16 PM 45.9738 -65.4228 216° Southwest 396 456 36,000  Level FlightAware ADS-B (EGUN / MHZ)
Sat 02:33:11 PM 45.8927 -65.5076 216° Southwest 397 457 36,000  Level FlightAware ADS-B (EGUN / MHZ)
Sat 02:34:04 PM 45.8143 -65.5895 216° Southwest 395 455 36,000  Level FlightAware ADS-B (EGUN / MHZ)
Sat 02:34:36 PM 45.7724 -65.6330 216° Southwest 394 453 36,000  Level FlightAware ADS-B (EGUN / MHZ)
Sat 02:35:12 PM 45.7143 -65.6933 216° Southwest 393 452 36,000  Level FlightAware ADS-B (EGUN / MHZ)
Sat 02:35:46 PM 45.6726 -65.7364 216° Southwest 392 451 36,000  Level FlightAware ADS-B (EGUN / MHZ)
Sat 02:36:26 PM 45.6068 -65.8044 216° Southwest 393 452 36,000  Level FlightAware ADS-B (EGUN / MHZ)
Sat 02:37:36 PM 45.5060 -65.9081 216° Southwest 396 456 36,000  Level FlightAware ADS-B (EGUN / MHZ)
Sat 02:38:06 PM 45.4583 -65.9571 216° Southwest 396 456 36,000  Level FlightAware ADS-B (EGUN / MHZ)
Sat 02:38:36 PM 45.4131 -66.0032 216° Southwest 396 456 36,000  Level FlightAware ADS-B (EGUN / MHZ)
Sat 02:39:06 PM 45.3695 -66.0478 216° Southwest 396 456 36,000  Level FlightAware ADS-B (EGUN / MHZ)
Sat 02:39:36 PM 45.3318 -66.0862 216° Southwest 396 456 36,000  Level FlightAware ADS-B (EGUN / MHZ)
Sat 02:40:06 PM 45.2804 -66.1384 216° Southwest 396 456 36,000  Level FlightAware ADS-B (EGUN / MHZ)
Sat 02:40:36 PM 45.2368 -66.1828 216° Southwest 395 455 36,000  Level FlightAware ADS-B (EGUN / MHZ)
Sat 02:41:06 PM 45.1888 -66.2314 216° Southwest 394 453 36,000  Level FlightAware ADS-B (EGUN / MHZ)
Sat 02:41:36 PM 45.1459 -66.2747 216° Southwest 394 453 36,000  Level FlightAware ADS-B (EGUN / MHZ)
Sat 02:42:19 PM 45.0827 -66.3385 216° Southwest 394 453 36,000  Level FlightAware ADS-B (EGUN / MHZ)
Sat 02:42:58 PM 45.0296 -66.3920 216° Southwest 394 453 36,000  Level FlightAware ADS-B (EGUN / MHZ)
Sat 02:43:31 PM 44.9967 -66.4250 215° Southwest 394 453 36,000  Level FlightAware ADS-B (WASR / MKW)
Sat 02:44:06 PM 44.9239 -66.4979 215° Southwest 392 451 36,000  Level FlightAware ADS-B (EGUN / MHZ)
Sat 02:44:49 PM 44.8600 -66.5615 215° Southwest 391 450 36,000  Level FlightAware ADS-B (EGUN / MHZ)
Sat 02:45:19 PM 44.8158 -66.6055 215° Southwest 392 451 36,000  Level FlightAware ADS-B (EGUN / MHZ)
Sat 02:47:40 PM 44.6093 -66.8105 215° Southwest 389 448 36,000  Level FlightAware ADS-B (EGUN / MHZ)
Sat 02:48:12 PM 44.5614 -66.8576 215° Southwest 391 450 36,000  Level FlightAware ADS-B (EGUN / MHZ)
Sat 02:48:45 PM 44.5143 -66.9039 215° Southwest 393 452 36,000  Level FlightAware ADS-B (EGUN / MHZ)
Sat 02:49:15 PM 44.4686 -66.9489 215° Southwest 395 455 36,000  Level FlightAware ADS-B (EGUN / MHZ)
Sat 02:50:02 PM 44.4049 -67.0159 222° Southwest 400 460 36,000  Level FlightAware ADS-B (EGUN / MHZ)
Sat 02:50:32 PM 44.3603 -67.0763 225° Southwest 403 464 36,000  Level FlightAware ADS-B (EGUN / MHZ)
Sat 02:51:13 PM 44.3058 -67.1524 225° Southwest 403 464 36,000  Level FlightAware ADS-B (EGUN / MHZ)
Sat 02:51:45 PM 44.2666 -67.2065 225° Southwest 403 464 36,000  Level FlightAware ADS-B (EGUN / MHZ)
Sat 02:52:28 PM 44.2097 -67.2843 225° Southwest 402 463 36,000  Level FlightAware ADS-B (EGUN / MHZ)
Sat 02:52:58 PM 44.1676 -67.3417 225° Southwest 401 461 36,000  Level FlightAware ADS-B (EGUN / MHZ)
Sat 02:53:28 PM 44.1278 -67.3958 224° Southwest 400 460 36,000  Level FlightAware ADS-B (EGUN / MHZ)
Sat 02:54:05 PM 44.0786 -67.4626 224° Southwest 401 461 36,000  Level FlightAware ADS-B (EGUN / MHZ)
Sat 02:54:35 PM 44.0373 -67.5186 224° Southwest 402 463 36,000  Level FlightAware ADS-B (EGUN / MHZ)
Sat 02:55:08 PM 43.9938 -67.5774 224° Southwest 404 465 36,000  Level FlightAware ADS-B (EGUN / MHZ)
Sat 02:55:38 PM 43.9532 -67.6322 224° Southwest 405 466 36,000  Level FlightAware ADS-B (EGUN / MHZ)
Sat 02:56:11 PM 43.9100 -67.6905 224° Southwest 406 467 36,000  Level FlightAware ADS-B (EGUN / MHZ)
Sat 02:56:41 PM 43.8711 -67.7428 224° Southwest 405 466 36,000  Level FlightAware ADS-B (EGUN / MHZ)
Sat 02:57:11 PM 43.8304 -67.7975 224° Southwest 405 466 36,000  Level FlightAware ADS-B (EGUN / MHZ)
Sat 02:57:52 PM 43.7741 -67.8729 224° Southwest 404 465 36,000  Level FlightAware ADS-B (EGUN / MHZ)
Sat 02:58:32 PM 43.7242 -67.9397 224° Southwest 402 463 36,000  Level FlightAware ADS-B (EGUN / MHZ)
Sat 02:59:03 PM 43.6841 -67.9930 224° Southwest 400 460 36,000  Level FlightAware ADS-B (EGUN / MHZ)
Sat 02:59:43 PM 43.6280 -68.0675 224° Southwest 402 463 36,000  Level FlightAware ADS-B (EGUN / MHZ)
Sat 03:00:13 PM 43.5856 -68.1237 224° Southwest 404 465 36,000  Level FlightAware ADS-B (EGUN / MHZ)
Sat 03:00:48 PM 43.5422 -68.1812 224° Southwest 407 468 36,000  Level FlightAware ADS-B (EGUN / MHZ)
Sat 03:01:20 PM 43.4949 -68.2437 224° Southwest 410 472 36,000  Level FlightAware ADS-B (EGUN / MHZ)
Sat 03:01:53 PM 43.4496 -68.3033 224° Southwest 415 478 36,000  Level FlightAware ADS-B (EGUN / MHZ)
Sat 03:02:23 PM 43.4106 -68.3546 224° Southwest 416 479 36,000  Level FlightAware ADS-B (EGUN / MHZ)
Sat 03:02:56 PM 43.3727 -68.4044 224° Southwest 417 480 36,000  Level FlightAware ADS-B (EGUN / MHZ)
Sat 03:03:26 PM 43.3208 -68.4725 224° Southwest 417 480 36,000  Level FlightAware ADS-B (EGUN / MHZ)
Sat 03:04:09 PM 43.2604 -68.5513 224° Southwest 415 478 36,000  Level FlightAware ADS-B (EGUN / MHZ)
Sat 03:04:39 PM 43.2223 -68.6010 224° Southwest 415 478 36,000  Level FlightAware ADS-B (EGUN / MHZ)
Sat 03:05:18 PM 43.1646 -68.6759 223° Southwest 413 475 36,000  Level FlightAware ADS-B (KBOS)
Sat 03:05:52 PM 43.1185 -68.7356 224° Southwest 414 476 36,000  Level FlightAware ADS-B (EGUN / MHZ)
Sat 03:07:09 PM 43.0195 -68.8636 223° Southwest 417 480 36,000  Level FlightAware ADS-B (EGUN / MHZ)
Sat 03:07:43 PM 42.9623 -68.9372 223° Southwest 418 481 36,000  Level FlightAware ADS-B (KBOS)
Sat 03:08:20 PM 42.9165 -68.9961 223° Southwest 417 480 36,000  Level FlightAware ADS-B (EGUN / MHZ)
Sat 03:09:05 PM 42.8492 -69.0824 223° Southwest 417 480 36,000  Level FlightAware ADS-B (EGUN / MHZ)
Sat 03:09:36 PM 42.8129 -69.1287 223° Southwest 417 480 36,000  Level FlightAware ADS-B (KBOS)
Sat 03:10:09 PM 42.7720 -69.1809 223° Southwest 417 480 36,000  Level FlightAware ADS-B (EGUN / MHZ)
Sat 03:10:43 PM 42.7111 -69.2583 223° Southwest 418 481 36,000  Level FlightAware ADS-B (EGUN / MHZ)
Sat 03:11:17 PM 42.6791 -69.2989 223° Southwest 419 482 36,000  Level FlightAware ADS-B (EGUN / MHZ)
Sat 03:12:01 PM 42.5997 -69.3996 223° Southwest 420 483 36,000  Level FlightAware ADS-B (KASH)
Sat 03:12:40 PM 42.5451 -69.4683 223° Southwest 421 484 36,000  Level FlightAware ADS-B (KBOS)
Sat 03:13:11 PM 42.5014 -69.5236 223° Southwest 422 486 36,000  Level FlightAware ADS-B (KBOS)
Sat 03:13:42 PM 42.4563 -69.5802 223° Southwest 422 486 36,000  Level FlightAware ADS-B (KBOS)
Sat 03:14:12 PM 42.4131 -69.6345 223° Southwest 422 486 36,000  Level FlightAware ADS-B (KBOS)
Sat 03:14:43 PM 42.3691 -69.6896 223° Southwest 424 488 36,000  Level FlightAware ADS-B (KBOS)
Sat 03:15:17 PM 42.3193 -69.7518 223° Southwest 427 491 36,000  Level FlightAware ADS-B (KBOS)
Sat 03:15:46 PM 42.2773 -69.8043 224° Southwest 422 486 36,000  Level FlightAware ADS-B (KASH)
Sat 03:15:51 PM 42.2701 -69.8132 224° Southwest 422 486 36,000  Level FlightAware ADS-B (KASH)
Sat 03:16:22 PM 42.2249 -69.8695 223° Southwest 427 491 36,000  Level FlightAware ADS-B (KBOS)
Sat 03:16:52 PM 42.1811 -69.9238 223° Southwest 428 493 36,000  Level FlightAware ADS-B (KBOS)
Sat 03:17:22 PM 42.1379 -69.9773 223° Southwest 430 495 36,000  Level FlightAware ADS-B (KBOS)
Sat 03:17:52 PM 42.0936 -70.0321 223° Southwest 430 495 36,000  Level FlightAware ADS-B (KBOS)
Sat 03:18:24 PM 42.0476 -70.0890 223° Southwest 432 497 36,000  Level FlightAware ADS-B (KBOS)
Sat 03:19:03 PM 41.9946 -70.1542 223° Southwest 435 501 36,000  Level FlightAware ADS-B (KBOS)
Sat 03:19:38 PM 41.9378 -70.2242 224° Southwest 438 504 36,000  Level FlightAware ADS-B (SBBR / BSB)
Sat 03:19:47 PM 41.9253 -70.2408 225° Southwest 438 504 36,000  Level FlightAware ADS-B (KOWD)
Sat 03:20:25 PM 41.8770 -70.3165 233° Southwest 439 505 36,000  Level FlightAware ADS-B (SBBR / BSB)
Sat 03:20:46 PM 41.8490 -70.3661 234° Southwest 435 501 36,000  Level FlightAware ADS-B (KASH)
Sat 03:21:25 PM 41.8047 -70.4435 232° Southwest 441 507 36,000  Level FlightAware ADS-B (KOWD)
Sat 03:21:57 PM 41.7634 -70.5151 232° Southwest 441 507 36,000  Level FlightAware ADS-B (KBOS)
Sat 03:22:31 PM 41.7220 -70.5862 232° Southwest 436 502 36,000  Level FlightAware ADS-B (KBOS)
Sat 03:23:05 PM 41.7117 -70.6039 232° Southwest 433 498 36,000  Level FlightAware ADS-B (KOWD)
Sat 03:23:35 PM 41.6407 -70.7255 232° Southwest 433 498 36,000  Level FlightAware ADS-B (KOWD)
Sat 03:23:54 PM 41.6249 -70.7525 233° Southwest 428 493 36,000  Level FlightAware ADS-B (KBOS)
Sat 03:24:26 PM 41.5769 -70.8344 232° Southwest 432 497 36,000  Level FlightAware ADS-B (SBBR / BSB)
Sat 03:24:59 PM 41.5376 -70.9011 232° Southwest 432 497 36,000  Level FlightAware ADS-B (SBBR / BSB)
Sat 03:25:29 PM 41.5001 -70.9648 232° Southwest 433 498 36,000  Level FlightAware ADS-B (SBBR / BSB)
Sat 03:25:48 PM 41.4763 -71.0051 232° Southwest 435 501 36,000  Level FlightAware ADS-B (SBBR / BSB)
Sat 03:26:20 PM 41.4388 -71.0686 232° Southwest 435 501 36,000  Level FlightAware ADS-B (SBBR / BSB)
Sat 03:26:32 PM 41.4208 -71.0990 233° Southwest 431 496 36,000  Level FlightAware ADS-B (KASH)
Sat 03:27:03 PM 41.3903 -71.1504 232° Southwest 436 502 36,000  Level FlightAware ADS-B (SBBR / BSB)
Sat 03:27:35 PM 41.3437 -71.2287 232° Southwest 435 501 36,000  Level FlightAware ADS-B (SBBR / BSB)
Sat 03:28:06 PM 41.3056 -71.2927 232° Southwest 430 495 36,000  Level FlightAware ADS-B (SBBR / BSB)
Sat 03:28:27 PM 41.2791 -71.3371 232° Southwest 429 494 36,000  Level FlightAware ADS-B (KSNC)
Sat 03:28:58 PM 41.2416 -71.3998 232° Southwest 427 491 36,000  Level FlightAware ADS-B (SBBR / BSB)
Sat 03:29:28 PM 41.2056 -71.4600 232° Southwest 426 490 36,000  Level FlightAware ADS-B (SBBR / BSB)
Sat 03:30:00 PM 41.1706 -71.5182 232° Southwest 425 489 36,000  Level FlightAware ADS-B (KSNC)
Sat 03:30:31 PM 41.1266 -71.5915 232° Southwest 424 488 36,000  Level FlightAware ADS-B (SBBR / BSB)
Sat 03:30:50 PM 41.1241 -71.5958 231° Southwest 423 487 36,000  Level FlightAware ADS-B (KSNC)
Sat 03:31:22 PM 41.0652 -71.6932 231° Southwest 423 487 36,000  Level FlightAware ADS-B (KSNC)
Sat 03:31:52 PM 41.0272 -71.7560 230° Southwest 424 488 36,000  Level FlightAware ADS-B (SBBR / BSB)
Sat 03:32:23 PM 40.9960 -71.7984 225° Southwest 424 488 36,000  Level FlightAware ADS-B (SBBR / BSB)
Sat 03:32:55 PM 40.9463 -71.8640 225° Southwest 425 489 36,000  Level FlightAware ADS-B (SBBR / BSB)
Sat 03:33:25 PM 40.9005 -71.9248 225° Southwest 426 490 36,000  Level FlightAware ADS-B (SBBR / BSB)
Sat 03:34:04 PM 40.8461 -71.9965 225° Southwest 427 491 36,000  Level FlightAware ADS-B (KSNC)
Sat 03:34:34 PM 40.8033 -72.0530 225° Southwest 427 491 36,000  Level FlightAware ADS-B (KSNC)
Sat 03:35:14 PM 40.7535 -72.1184 225° Southwest 429 494 36,000  Level FlightAware ADS-B (KSNC)
Sat 03:35:54 PM 40.6910 -72.2003 225° Southwest 431 496 36,000  Level FlightAware ADS-B (KSNC)
Sat 03:36:24 PM 40.6513 -72.2523 225° Southwest 430 495 36,000  Level FlightAware ADS-B (KSNC)
Sat 03:36:55 PM 40.6051 -72.3126 225° Southwest 429 494 36,000  Level FlightAware ADS-B (KSNC)
Sat 03:37:34 PM 40.5553 -72.3776 225° Southwest 430 495 36,000  Level FlightAware ADS-B (KSNC)
Sat 03:38:05 PM 40.5063 -72.4413 225° Southwest 428 493 36,000  Level FlightAware ADS-B (KWWD)
Sat 03:38:24 PM 40.4795 -72.4761 226° Southwest 419 482 36,000  Level FlightAware ADS-B (KWWD)
Sat 03:38:55 PM 40.4366 -72.5317 225° Southwest 424 488 36,000  Level FlightAware ADS-B (KSNC)
Sat 03:39:04 PM 40.4257 -72.5460 226° Southwest 418 481 36,000  Level FlightAware ADS-B (KWWD)
Sat 03:39:15 PM 40.4081 -72.5687 226° Southwest 418 481 36,000  Level FlightAware ADS-B (KWWD)
Sat 03:39:46 PM 40.3648 -72.6245 225° Southwest 424 488 36,000  Level FlightAware ADS-B (KSNC)
Sat 03:40:19 PM 40.3197 -72.6827 225° Southwest 422 486 36,000  Level FlightAware ADS-B (KSNC)
Sat 03:40:49 PM 40.2788 -72.7353 225° Southwest 421 484 36,000  Level FlightAware ADS-B (KSNC)
Sat 03:41:29 PM 40.2241 -72.8057 225° Southwest 418 481 36,000  Level FlightAware ADS-B (KSNC)
Sat 03:41:57 PM 40.1841 -72.8569 225° Southwest 413 475 36,000  Level FlightAware ADS-B (KWWD)
Sat 03:42:13 PM 40.1622 -72.8849 225° Southwest 413 475 36,000  Level FlightAware ADS-B (KWWD)
Sat 03:42:55 PM 40.1039 -72.9597 225° Southwest 414 476 36,000  Level FlightAware ADS-B (KWWD)
Sat 03:43:08 PM 40.0858 -72.9826 225° Southwest 412 474 36,000  Level FlightAware ADS-B (KWWD)
Sat 03:43:42 PM 40.0390 -73.0422 224° Southwest 417 480 36,000  Level FlightAware ADS-B (KSNC)
Sat 03:44:17 PM 39.9905 -73.1039 225° Southwest 417 480 36,000  Level FlightAware ADS-B (KPHL)
Sat 03:44:35 PM 39.9676 -73.1330 225° Southwest 409 471 36,000  Level FlightAware ADS-B (KWWD)
Sat 03:44:47 PM 39.9486 -73.1570 224° Southwest 413 475 36,000  Level FlightAware ADS-B (KSNC)
Sat 03:45:17 PM 39.9099 -73.2059 224° Southwest 414 476 36,000  Level FlightAware ADS-B (KPHL)
Sat 03:45:32 PM 39.8882 -73.2334 225° Southwest 409 471 36,000  Level FlightAware ADS-B (KWWD)
Sat 03:45:42 PM 39.8731 -73.2525 225° Southwest 409 471 36,000  Level FlightAware ADS-B (KWWD)
Sat 03:46:16 PM 39.8270 -73.3110 224° Southwest 418 481 36,000  Level FlightAware ADS-B (KPHL)
Sat 03:46:47 PM 39.7841 -73.3651 224° Southwest 419 482 36,000  Level FlightAware ADS-B (KPHL)
Sat 03:47:17 PM 39.7424 -73.4175 224° Southwest 421 484 36,000  Level FlightAware ADS-B (KPHL)
Sat 03:47:47 PM 39.7006 -73.4700 224° Southwest 422 486 36,000  Level FlightAware ADS-B (KPHL)
Sat 03:48:18 PM 39.6570 -73.5246 224° Southwest 426 490 36,000  Level FlightAware ADS-B (KPHL)
Sat 03:48:48 PM 39.6139 -73.5785 224° Southwest 429 494 36,000  Level FlightAware ADS-B (KWWD)
Sat 03:49:18 PM 39.5661 -73.6258 214° Southwest 437 503 36,000  Level FlightAware ADS-B (KPHL)
Sat 03:49:48 PM 39.5161 -73.6696 214° Southwest 437 503 36,000  Level FlightAware ADS-B (KPHL)
Sat 03:50:18 PM 39.4665 -73.7132 214° Southwest 437 503 36,000  Level FlightAware ADS-B (KPHL)
Sat 03:50:50 PM 39.4116 -73.7616 214° Southwest 437 503 36,000  Level FlightAware ADS-B (KSNC)
Sat 03:51:02 PM 39.3920 -73.7787 215° Southwest 429 494 36,000  Level FlightAware ADS-B (KWWD)
Sat 03:51:33 PM 39.3416 -73.8231 214° Southwest 436 502 36,000  Level FlightAware ADS-B (KPHL)
Sat 03:52:03 PM 39.2906 -73.8678 215° Southwest 430 495 36,000  Level FlightAware ADS-B (KWWD)
Sat 03:52:16 PM 39.2731 -73.8831 214° Southwest 439 505 36,000  Level FlightAware ADS-B (KSNC)
Sat 03:52:48 PM 39.2149 -73.9343 215° Southwest 437 503 36,000  Level FlightAware ADS-B (KWWD)
Sat 03:53:26 PM 39.1502 -73.9909 214° Southwest 446 513 36,000  Level FlightAware ADS-B (KWWD)
Sat 03:53:56 PM 39.0984 -74.0361 214° Southwest 448 516 36,000  Level FlightAware ADS-B (KWWD)
Sat 03:54:26 PM 39.0466 -74.0815 214° Southwest 449 517 36,000  Level FlightAware ADS-B (KWWD)
Sat 03:54:57 PM 38.9933 -74.1278 214° Southwest 451 519 36,000  Level FlightAware ADS-B (KWWD)
Sat 03:55:29 PM 38.9395 -74.1746 214° Southwest 452 520 36,000  Level FlightAware ADS-B (KWWD)
Sat 03:55:59 PM 38.8869 -74.2202 215° Southwest 448 516 36,000  Level FlightAware ADS-B (KWWD)
Sat 03:56:36 PM 38.8228 -74.2758 215° Southwest 446 513 36,000  Level FlightAware ADS-B (KWWD)
Sat 03:57:06 PM 38.7703 -74.3209 214° Southwest 449 517 36,000  Level FlightAware ADS-B (KWWD)
Sat 03:57:40 PM 38.7137 -74.3697 215° Southwest 432 497 36,000  Level FlightAware ADS-B (KWWD)
Sat 03:58:19 PM 38.6477 -74.4265 214° Southwest 429 494 36,000  Level FlightAware ADS-B (KWWD)
Sat 03:58:49 PM 38.5978 -74.4694 214° Southwest 429 494 36,000  Level FlightAware ADS-B (KWWD)
Sat 03:59:19 PM 38.5496 -74.5107 214° Southwest 429 494 36,000  Level FlightAware ADS-B (KWWD)
Sat 03:59:49 PM 38.4997 -74.5535 214° Southwest 429 494 36,000  Level FlightAware ADS-B (KWWD)
Sat 04:00:19 PM 38.4501 -74.5959 214° Southwest 425 489 36,000  Level FlightAware ADS-B (KWWD)
Sat 04:00:57 PM 38.3892 -74.6478 214° Southwest 424 488 36,000  Level FlightAware ADS-B (KWWD)
Sat 04:01:39 PM 38.3202 -74.7066 214° Southwest 424 488 36,000  Level FlightAware ADS-B (KWWD)
Sat 04:02:10 PM 38.2699 -74.7493 214° Southwest 426 490 36,000  Level FlightAware ADS-B (KWWD)
Sat 04:02:40 PM 38.2223 -74.7897 214° Southwest 427 491 36,000  Level FlightAware ADS-B (KWWD)
Sat 04:03:20 PM 38.1544 -74.8471 214° Southwest 427 491 36,000  Level FlightAware ADS-B (KWWD)
Sat 04:04:01 PM 38.0867 -74.9045 214° Southwest 442 509 36,000  Level FlightAware ADS-B (KWWD)
Sat 04:04:34 PM 38.0305 -74.9519 214° Southwest 445 512 36,000  Level FlightAware ADS-B (KWWD)
Sat 04:05:04 PM 37.9793 -74.9946 214° Southwest 431 496 36,000  Level FlightAware ADS-B (KWWD)
Sat 04:05:39 PM 37.9209 -75.0437 214° Southwest 430 495 36,000  Level FlightAware ADS-B (KWWD)
Sat 04:06:09 PM 37.8694 -75.0868 214° Southwest 431 496 36,000  Level FlightAware ADS-B (KWWD)
Sat 04:07:10 PM 37.7714 -75.1689 214° Southwest 443 510 36,000  Level FlightAware ADS-B (KWWD)
Sat 04:07:48 PM 37.7004 -75.2281 213° Southwest 445 512 36,000  Level FlightAware ADS-B (KWWD)
Sat 04:08:25 PM 37.6363 -75.2813 214° Southwest 444 511 36,000  Level FlightAware ADS-B (KWWD)
Sat 04:09:06 PM 37.5673 -75.3385 213° Southwest 442 509 36,000  Level FlightAware ADS-B (KWWD)
Sat 04:09:44 PM 37.5057 -75.3895 214° Southwest 432 497 36,000  Level FlightAware ADS-B (KWWD)
Sat 04:10:14 PM 37.4512 -75.4346 213° Southwest 440 506 36,000  Level FlightAware ADS-B (KWWD)
Sat 04:10:51 PM 37.3895 -75.4855 213° Southwest 440 506 36,000  Level FlightAware ADS-B (KWWD)
Sat 04:11:24 PM 37.3353 -75.5301 213° Southwest 441 507 36,000  Level FlightAware ADS-B (KWWD)
Sat 04:12:00 PM 37.2705 -75.5834 213° Southwest 441 507 36,000  Level FlightAware ADS-B (KWWD)
Sat 04:12:32 PM 37.2169 -75.6273 213° Southwest 442 509 36,000  Level FlightAware ADS-B (KWWD)
Sat 04:13:10 PM 37.1515 -75.6808 213° Southwest 444 511 36,000  Level FlightAware ADS-B (KWWD)
Sat 04:13:41 PM 37.0987 -75.7240 213° Southwest 445 512 36,000  Level FlightAware ADS-B (KWWD)
Sat 04:14:16 PM 37.0374 -75.7740 213° Southwest 444 511 36,000  Level FlightAware ADS-B (KWWD)
Sat 04:14:52 PM 36.9780 -75.8224 213° Southwest 444 511 36,000  Level FlightAware ADS-B (KWWD)
Sat 04:15:31 PM 36.9117 -75.8763 213° Southwest 447 514 36,000  Level FlightAware ADS-B (KWWD)
Sat 04:16:10 PM 36.8405 -75.9340 214° Southwest 442 509 36,000  Level FlightAware ADS-B (KWWD)
Sat 04:16:41 PM 36.7878 -75.9768 214° Southwest 442 509 36,000  Level FlightAware ADS-B (KWWD)
Sat 04:17:40 PM 36.6839 -76.0606 214° Southwest 442 509 36,000  Level FlightAware ADS-B (KWWD)
Sat 04:18:22 PM 36.6116 -76.1188 214° Southwest 442 509 36,000  Level FlightAware ADS-B (KWWD)
Sat 04:19:11 PM 36.5231 -76.1857 207° Southwest 454 522 36,000  Level FlightAware ADS-B (KWWD)
Sat 04:20:11 PM 36.4030 -76.2449 202° Southwest 466 536 36,000  Level FlightAware ADS-B (KWWD)
Sat 04:21:38 PM 36.2406 -76.3244 202° Southwest 468 539 36,000  Level Washington Center
Sat 04:22:41 PM 36.1211 -76.3839 202° Southwest 467 537 36,000  Level Washington Center
Sat 04:23:42 PM 36.0019 -76.4408 201° Southwest 463 533 36,000  Level Washington Center
Sat 04:24:43 PM 35.8833 -76.4992 202° Southwest 461 531 36,000  Level Washington Center
Sat 04:25:47 PM 35.7650 -76.5581 202° Southwest 461 531 36,000  Level Washington Center
Sat 04:26:49 PM 35.6208 -76.6267 201° Southwest 462 532 36,000  Level Washington Center
Sat 04:27:52 PM 35.5011 -76.6858 202° Southwest 463 533 36,000  Level Washington Center
Sat 04:28:53 PM 35.3800 -76.7439 201° Southwest 464 534 36,000  Level Washington Center
Sat 04:29:54 PM 35.2411 -76.8100 201° Southwest 471 542 36,000  Level Washington Center
Sat 04:30:57 PM 35.1194 -76.8692 202° Southwest 471 542 36,000  Level Washington Center
Sat 04:31:58 PM 34.9964 -76.9286 202° Southwest 467 537 36,000  Level Washington Center
Sat 04:33:02 PM 34.8742 -76.9875 202° Southwest 469 540 36,000  Level Washington Center
Sat 04:34:02 PM 34.7517 -77.0447 201° Southwest 469 540 36,000  Level Washington Center
Sat 04:35:06 PM 34.6300 -77.1028 201° Southwest 469 540 36,000  Level Washington Center
Sat 04:36:06 PM 34.5069 -77.1619 202° Southwest 470 541 36,000  Level Washington Center
Sat 04:37:10 PM 34.3825 -77.2197 201° Southwest 473 544 36,000  Level Washington Center
Sat 04:38:11 PM 34.2339 -77.2889 201° Southwest 474 545 36,000  Level Washington Center
Sat 04:39:14 PM 34.1119 -77.3467 201° Southwest 473 544 36,000  Level Washington Center
Sat 04:40:16 PM 33.9894 -77.4033 201° Southwest 470 541 36,000  Level Washington Center
Sat 04:41:19 PM 33.8672 -77.4608 201° Southwest 470 541 36,000  Level Washington Center
Sat 04:42:20 PM 33.7436 -77.5175 201° Southwest 469 540 36,000  Level Washington Center
Sat 04:43:23 PM 33.6211 -77.5736 201° Southwest 469 540 36,000  Level Washington Center
Sat 04:44:24 PM 33.4981 -77.6272 200° South 469 540 36,000  Level Washington Center
Sat 04:45:27 PM 33.3497 -77.6911 200° South 469 540 36,000  Level Washington Center
Sat 04:46:28 PM 33.2275 -77.7444 200° South 469 540 36,000  Level Washington Center
Sat 04:47:32 PM 33.1053 -77.7975 200° South 468 539 36,000  Level Washington Center
Sat 04:48:32 PM 32.9842 -77.8483 199° South 466 536 36,000  Level Washington Center
Sat 04:49:36 PM 32.8633 -77.9031 201° Southwest 465 535 36,000  Level Washington Center
Sat 04:50:37 PM 32.7422 -77.9550 200° South 465 535 36,000  Level Washington Center
Sat 04:51:41 PM 32.5978 -78.0150 199° South 460 529 36,000  Level Washington Center
Sat 04:52:47 PM 32.4669 -78.0644 198° South 460 529 36,000  Level Jacksonville Center
Sat 04:53:47 PM 32.3478 -78.1175 201° Southwest 460 529 36,000  Level Jacksonville Center
Sat 04:54:47 PM 32.2267 -78.1678 199° South 460 529 36,000  Level Jacksonville Center
Sat 04:55:47 PM 32.1075 -78.2181 200° South 460 529 36,000  Level Jacksonville Center
Sat 04:56:47 PM 31.9781 -78.2761 201° Southwest 465 535 36,000  Level Jacksonville Center
Sat 04:57:47 PM 31.8650 -78.3258 200° South 459 528 36,000  Level Jacksonville Center
Sat 04:58:47 PM 31.7436 -78.3758 199° South 453 521 36,000  Level Jacksonville Center
Sat 04:59:47 PM 31.6406 -78.4150 198° South 452 520 36,000  Level Jacksonville Center
Sat 05:00:47 PM 31.5214 -78.4669 200° South 452 520 36,000  Level Jacksonville Center
Sat 05:01:47 PM 31.4061 -78.5139 199° South 452 520 36,000  Level Jacksonville Center
Sat 05:02:47 PM 31.2869 -78.5656 200° South 452 520 36,000  Level Jacksonville Center
Sat 05:03:47 PM 31.1714 -78.6097 198° South 452 520 36,000  Level Jacksonville Center
Sat 05:04:47 PM 31.0542 -78.6589 200° South 452 520 36,000  Level Jacksonville Center
Sat 05:05:47 PM 30.9244 -78.7131 200° South 444 511 36,000  Level Jacksonville Center
Sat 05:06:47 PM 30.8092 -78.7617 200° South 447 514 36,000  Level Jacksonville Center
Sat 05:09:06 PM 30.5539 -78.8664 199° South 444 511 36,000  Level Miami Center
Sat 05:10:06 PM 30.4406 -78.9100 198° South 449 517 36,000  Level Miami Center
Sat 05:11:06 PM 30.3233 -78.9581 199° South 440 506 36,000  Level Miami Center
Sat 05:12:06 PM 30.1975 -79.0061 198° South 435 501 36,000  Level Miami Center
Sat 05:13:06 PM 30.0883 -79.0494 199° South 435 501 36,000  Level Miami Center
Sat 05:14:05 PM 29.9644 -79.1117 204° Southwest 435 501 36,000  Level Miami Center
Sat 05:15:06 PM 29.8492 -79.1547 198° South 440 506 36,000  Level Miami Center
Sat 05:16:06 PM 29.7317 -79.2022 199° South 445 512 36,000  Level Miami Center
Sat 05:17:06 PM 29.6161 -79.2475 199° South 445 512 36,000  Level Miami Center
Sat 05:18:05 PM 29.5006 -79.2950 200° South 450 518 36,000  Level Miami Center
Sat 05:19:05 PM 29.3853 -79.3353 197° South 450 518 36,000  Level Miami Center
Sat 05:24:48 PM 28.7192 -79.5912 199° South 442 509 36,000  Level FlightAware ADS-B
Sat 05:26:55 PM 28.4724 -79.6872 199° South 441 507 36,000  Level FlightAware ADS-B
Sat 05:27:36 PM 28.3936 -79.7178 199° South 441 507 36,000  Level FlightAware ADS-B
Sat 05:28:13 PM 28.3211 -79.7458 199° South 443 510 36,000  Level FlightAware ADS-B
Sat 05:28:55 PM 28.2416 -79.7764 199° South 442 509 36,000  Level FlightAware ADS-B
Sat 05:29:36 PM 28.1620 -79.8072 199° South 441 507 36,000  Level FlightAware ADS-B
Sat 05:30:35 PM 28.0473 -79.8514 199° South 439 505 36,000  Level FlightAware ADS-B
Sat 05:31:16 PM 27.9686 -79.8817 199° South 437 503 36,000  Level FlightAware ADS-B
Sat 05:31:55 PM 27.8989 -79.9085 199° South 439 505 36,000  Level FlightAware ADS-B
Sat 05:32:57 PM 27.7759 -79.9556 199° South 438 504 36,000  Level FlightAware ADS-B
Sat 05:34:15 PM 27.6248 -80.0134 199° South 438 504 36,000  Level FlightAware ADS-B
Sat 05:34:56 PM 27.5451 -80.0437 199° South 438 504 36,000  Level FlightAware ADS-B
Sat 05:35:56 PM 27.4313 -80.0871 199° South 434 499 36,000  Level FlightAware ADS-B
Sat 05:36:33 PM 27.3599 -80.1142 199° South 433 498 36,000  Level FlightAware ADS-B
Sat 05:37:35 PM 27.2521 -80.1551 199° South 432 497 36,000  Level FlightAware ADS-B
Sat 05:38:36 PM 27.1298 -80.2014 199° South 434 499 36,000  Level FlightAware ADS-B
Sat 05:39:37 PM 27.0159 -80.2444 199° South 435 501 36,000  Level FlightAware ADS-B (RJTF)
Sat 05:40:07 PM 26.9617 -80.2648 199° South 434 499 36,000  Level FlightAware ADS-B (RJTF)
Sat 05:40:37 PM 26.9003 -80.2880 199° South 435 501 36,000  Level FlightAware ADS-B (RJTF)
Sat 05:41:22 PM 26.8117 -80.3213 199° South 436 502 36,000  Level FlightAware ADS-B (RJTF)
Sat 05:41:52 PM 26.7593 -80.3410 199° South 435 501 36,000  Level FlightAware ADS-B (RJTF)
Sat 05:42:22 PM 26.6982 -80.3639 199° South 434 499 36,000  Level FlightAware ADS-B (RJTF)
Sat 05:42:52 PM 26.6431 -80.3845 199° South 432 497 36,000  Level FlightAware ADS-B (RJTF)
Sat 05:43:36 PM 26.5585 -80.4161 199° South 432 497 36,000  Level FlightAware ADS-B (RJTF)
Sat 05:44:07 PM 26.4987 -80.4386 199° South 433 498 36,000  Level FlightAware ADS-B (RJTF)
Sat 05:44:52 PM 26.4305 -80.4640 199° South 433 498 36,000  Level FlightAware ADS-B (RJTF)
Sat 05:45:37 PM 26.3271 -80.5026 199° South 433 498 36,000  Level FlightAware ADS-B (RJTF)
Sat 05:46:07 PM 26.2735 -80.5225 199° South 434 499 36,000  Level FlightAware ADS-B (RJTF)
Sat 05:46:52 PM 26.1963 -80.5512 199° South 435 501 36,000  Level FlightAware ADS-B (RJTF)
Sat 05:47:23 PM 26.1275 -80.5767 199° South 435 501 36,000  Level FlightAware ADS-B (RJTF)
Sat 05:48:03 PM 26.0937 -80.5893 199° South 435 501 36,000  Level FlightAware ADS-B (RJTF)
Sat 05:48:53 PM 25.9644 -80.6451 212° Southwest 424 488 36,000  Level FlightAware ADS-B (RJTF)
Sat 05:50:05 PM 25.8594 -80.7517 212° Southwest 424 488 36,000  Level Miami Center
Sat 05:51:05 PM 25.7714 -80.8367 221° Southwest 424 488 36,000  Level Miami Center
Sat 05:52:05 PM 25.6856 -80.9189 221° Southwest 424 488 36,000  Level Miami Center
Sat 05:53:05 PM 25.5978 -81.0011 220° Southwest 418 481 36,000  Level Miami Center
Sat 05:54:05 PM 25.5139 -81.0836 222° Southwest 418 481 36,000 -300 Level Miami Center
Sat 05:55:05 PM 25.4281 -81.1681 222° Southwest 418 481 35,400 -800 Descending Miami Center
Sat 05:56:05 PM 25.3356 -81.2542 220° Southwest 428 493 34,400 -1,000 Descending Miami Center
Sat 05:57:05 PM 25.2453 -81.3428 222° Southwest 428 493 33,400 -1,000 Descending Miami Center
Sat 05:58:05 PM 25.1528 -81.4314 221° Southwest 433 498 32,400 -1,000 Descending Miami Center
Sat 05:59:05 PM 25.0667 -81.5153 221° Southwest 428 493 31,400 -1,000 Descending Miami Center
Sat 06:00:05 PM 24.9761 -81.5986 220° Southwest 428 493 30,400 -1,000 Descending Miami Center
Sat 06:01:05 PM 24.8919 -81.6825 222° Southwest 418 481 29,400 -950 Descending Miami Center
Sat 06:02:05 PM 24.8167 -81.7506 219° Southwest 413 475 28,500 -900 Descending Miami Center
Sat 06:03:05 PM 24.7303 -81.8339 221° Southwest 413 475 27,600 -1,000 Descending Miami Center
Sat 06:04:05 PM 24.6356 -81.9214 220° Southwest 413 475 26,500 -1,050 Descending Miami Center
Sat 06:05:05 PM 24.5456 -81.9886 214° Southwest 408 470 25,500 -1,100 Descending Miami Center
Sat 06:06:05 PM 24.4375 -82.0319 200° South 402 463 24,300 -1,450 Descending Miami Center
Sat 06:07:05 PM 24.3358 -82.0781 202° Southwest 402 463 22,600 -1,700 Descending Miami Center
Sat 06:08:05 PM 24.2400 -82.1286 206° Southwest 402 463 20,900 -1,700 Descending Miami Center
Sat 06:09:05 PM 24.1361 -82.1719 201° Southwest 402 463 19,200 -1,700 Descending Miami Center
Sat 06:10:05 PM 24.0364 -82.2156 202° Southwest 396 456 17,500 -1,700 Descending Miami Center
Sat 06:12:00 PM 23.8282 -82.2717 198° South  Level FlightAware Approximate
Sat 06:19:00 PM 23.0773 -82.4055 170° South  Level FlightAware Approximate
Sat 06:20:00 PM 22.9891 -82.4091 180° South  Level Estimated
Sat 06:21:00 PM 22.9891 -82.4091 180° South  Level Estimated
Sat 06:22:00 PM 22.9891 -82.4091 180° South  Level Estimated
Sat 06:23:00 PM 22.9891 -82.4091 180° South  Level Estimated
Sat 06:24:00 PM 22.9891 -82.4091 180° South  Level Estimated
Sat 06:25:00 PM 22.9891 -82.4091 180° South  Level Estimated
Sat 06:26:00 PM 22.9891 -82.4091 180° South  Level Estimated
Sat 06:27:00 PM 22.9891 -82.4091 180° South  Level Estimated
Sat 06:28:00 PM 22.9891 -82.4091 180° South  Level Estimated
Sat 06:29:00 PM 22.9891 -82.4091 180° South  Level Estimated
Sat 06:30:00 PM 22.9891 -82.4091 180° South  Level Estimated
Sat 06:31:00 PM 22.9891 -82.4091 180° South  Level Estimated
Sat 06:32:00 PM 22.9891 -82.4091 180° South  Level Estimated
Sat 06:33:00 PM 22.9891 -82.4091 180° South  Level Estimated
Sat 06:34:00 PM 22.9891 -82.4091 180° South  Level Estimated
Sat 06:35:00 PM 22.9891 -82.4091 180° South  Level Estimated
Sat 06:36:00 PM 22.9891 -82.4091 180° South  Level Estimated
Sat 06:37:00 PM 22.9891 -82.4091 180° South  Level Estimated
Sat 06:38:00 PM 22.9891 -82.4091 180° South  Level Estimated
Sat 06:39:00 PM 22.9891 -82.4091 180° South  Level Estimated

Login

Don't have an account? Register now (free) for customized features, flight alerts, and more!